DALH weather

Dalhousie Airport
South Australia, Australia

Public forecast

Using degrees Celsius for public forecast. Weather courtesy of forecast.io.

Closest aviation weather report (METAR) to Dalhousie Airport

Closest report is Birdsville Airport, 209.5 nm (388.0 km) E. Retrieved 2019/10/24 02:30 UTC (28 minutes ago):

YBDV 240230Z AUTO 02017G27KT //// // ////// 36/04 Q1012

Closest aviation forecast (TAF) to Dalhousie Airport

Forecast is more than 6 hours old.

Closest forecast is Alice Springs Airport, 180.0 nm (333.3 km) NNW. Retrieved 2019/10/23 18:00 UTC (9 hours ago):

TAF YBAS 231730Z 2318/2418 35008KT CAVOK FM232300 33018G28KT CAVOK FM240200 30010KT CAVOK FM240800 36008KT CAVOK PROB30 TEMPO 2403/2412 VRB20G40KT 4000 TSRA SCT120CB